Time;durP1;ratioP1;P1;durP2;ratioP2;P2;SDS_P1;SDS_P2;PMS_P1;PMS_P2;Temp;Humidity;BMP_temperature;BMP_pressure;BME280_temperature;BME280_humidity;BME280_pressure;Samples;Min_cycle;Max_cycle;Signal;HPM_P1;HPM_P2
2021/10/30 00:02:12;;;;;;;35.10;22.58;;;;;;;6.47;67.72;99287.84;10386664;28;20439;-67
2021/10/30 00:07:15;;;;;;;40.30;24.40;;;;;;;6.46;67.84;99282.72;10387883;28;20500;-66
2021/10/30 00:12:17;;;;;;;39.03;23.40;;;;;;;6.33;68.25;99264.34;10387670;28;20887;-66
2021/10/30 00:17:18;;;;;;;36.53;21.40;;;;;;;6.43;68.10;99277.72;10385662;28;20445;-66
2021/10/30 00:22:20;;;;;;;30.40;18.65;;;;;;;6.45;67.94;99271.50;10388516;28;20056;-66
2021/10/30 00:27:22;;;;;;;28.95;18.50;;;;;;;6.46;67.98;99270.59;10386140;28;20051;-67
2021/10/30 00:32:24;;;;;;;40.78;22.65;;;;;;;6.43;67.99;99262.94;10385467;28;20077;-67
2021/10/30 00:37:26;;;;;;;50.60;25.52;;;;;;;6.09;67.97;99266.47;10386988;28;20139;-66
2021/10/30 00:42:27;;;;;;;25.67;17.88;;;;;;;6.10;68.51;99286.28;10387707;28;20053;-66
2021/10/30 00:47:29;;;;;;;30.27;19.38;;;;;;;6.13;68.00;99272.31;10387056;28;20141;-66
2021/10/30 00:52:32;;;;;;;36.75;21.80;;;;;;;5.99;68.03;99261.81;10386905;28;20136;-66
2021/10/30 00:57:36;;;;;;;47.05;22.67;;;;;;;5.76;67.60;99251.81;10386653;28;20490;-66
2021/10/30 01:02:38;;;;;;;36.53;22.00;;;;;;;5.62;68.75;99251.63;10385679;28;20046;-66
2021/10/30 01:07:40;;;;;;;30.23;18.30;;;;;;;5.82;69.11;99239.31;10385469;28;20053;-66
2021/10/30 01:12:44;;;;;;;41.45;22.42;;;;;;;5.91;68.61;99244.06;10385754;28;20081;-65
2021/10/30 01:17:45;;;;;;;25.52;18.05;;;;;;;5.89;68.65;99245.91;10385888;28;20054;-66
2021/10/30 01:22:47;;;;;;;26.33;17.73;;;;;;;5.93;68.23;99241.38;10385265;28;20052;-66
2021/10/30 01:27:51;;;;;;;40.70;23.15;;;;;;;5.89;68.03;99237.25;10384619;28;20243;-66
2021/10/30 01:32:58;;;;;;;32.83;20.20;;;;;;;5.80;68.31;99253.31;10384530;28;20576;-65
2021/10/30 01:38:03;;;;;;;35.55;19.73;;;;;;;5.83;68.26;99248.81;10383312;28;20060;-66
2021/10/30 01:43:05;;;;;;;34.55;18.58;;;;;;;5.81;68.08;99239.41;10385278;28;20139;-65
2021/10/30 01:48:07;;;;;;;29.70;17.73;;;;;;;5.67;68.45;99223.72;10383412;28;20057;-66
2021/10/30 01:53:09;;;;;;;35.85;17.77;;;;;;;5.68;68.34;99228.81;10385030;28;20091;-66
2021/10/30 01:58:11;;;;;;;34.03;18.80;;;;;;;5.71;68.23;99223.50;10384914;28;20053;-66
2021/10/30 02:03:13;;;;;;;36.53;21.48;;;;;;;5.78;68.37;99224.03;10388359;28;20405;-66
2021/10/30 02:08:15;;;;;;;45.95;24.55;;;;;;;5.63;68.08;99224.78;10391304;28;20057;-66
2021/10/30 02:13:19;;;;;;;34.30;20.33;;;;;;;5.54;68.64;99211.38;10392098;28;20059;-66
2021/10/30 02:18:21;;;;;;;34.97;21.10;;;;;;;5.59;68.73;99198.19;10389736;28;20429;-66
2021/10/30 02:23:22;;;;;;;27.75;18.55;;;;;;;5.69;68.57;99199.38;10391235;28;20053;-66
2021/10/30 02:28:24;;;;;;;31.65;19.65;;;;;;;5.82;68.70;99197.00;10390828;28;20144;-66
2021/10/30 02:33:26;;;;;;;27.48;19.17;;;;;;;5.93;68.58;99192.06;10391454;28;20494;-66
2021/10/30 02:38:28;;;;;;;34.00;21.90;;;;;;;5.81;68.44;99175.41;10390946;28;20350;-66
2021/10/30 02:43:29;;;;;;;31.42;19.70;;;;;;;5.82;68.98;99168.47;10398945;28;20531;-66
2021/10/30 02:48:31;;;;;;;32.63;21.58;;;;;;;5.80;68.87;99176.28;10397810;28;20059;-66
2021/10/30 02:53:33;;;;;;;29.75;21.08;;;;;;;5.76;69.34;99159.22;10399574;28;20409;-66
2021/10/30 02:58:35;;;;;;;34.90;19.77;;;;;;;5.78;69.37;99161.75;10398646;28;20043;-67
2021/10/30 03:03:36;;;;;;;30.58;18.05;;;;;;;5.86;69.19;99154.41;10395997;28;20162;-65
2021/10/30 03:08:38;;;;;;;29.35;19.77;;;;;;;5.91;69.15;99152.38;10394231;28;20056;-66
2021/10/30 03:13:40;;;;;;;29.45;18.95;;;;;;;6.04;69.02;99138.66;10390635;28;20268;-66
2021/10/30 03:18:42;;;;;;;27.25;19.42;;;;;;;6.24;68.51;99124.63;10391601;28;20054;-66
2021/10/30 03:23:43;;;;;;;34.67;21.08;;;;;;;6.31;68.20;99125.97;10391343;28;20045;-66
2021/10/30 03:28:45;;;;;;;29.40;19.30;;;;;;;6.33;68.08;99126.72;10391195;28;20053;-66
2021/10/30 03:33:48;;;;;;;42.67;23.25;;;;;;;6.40;68.01;99109.91;10391345;28;20428;-66
2021/10/30 03:38:50;;;;;;;28.77;20.05;;;;;;;6.29;68.07;99112.25;10390574;28;20053;-66
2021/10/30 03:43:52;;;;;;;28.77;20.33;;;;;;;6.30;68.36;99114.78;10387988;28;20041;-67
2021/10/30 03:48:53;;;;;;;35.28;22.30;;;;;;;6.41;68.13;99110.75;10390413;28;20046;-66
2021/10/30 03:53:55;;;;;;;26.73;20.08;;;;;;;6.45;67.83;99110.47;10389265;28;20482;-66
2021/10/30 03:58:57;;;;;;;35.97;22.98;;;;;;;6.53;67.69;99104.84;10390414;28;20045;-66
2021/10/30 04:03:58;;;;;;;28.75;20.55;;;;;;;6.62;67.52;99104.31;10390119;28;20060;-66
2021/10/30 04:09:00;;;;;;;26.05;18.77;;;;;;;6.65;67.36;99097.22;10388840;28;20060;-66
2021/10/30 04:14:02;;;;;;;32.03;21.98;;;;;;;6.72;67.42;99111.50;10388799;28;20049;-66
2021/10/30 04:19:04;;;;;;;28.02;20.67;;;;;;;6.65;67.48;99093.78;10388287;28;20494;-67
2021/10/30 04:24:06;;;;;;;34.58;23.08;;;;;;;6.56;67.57;99089.09;10389053;28;20297;-66
2021/10/30 04:29:08;;;;;;;30.83;22.02;;;;;;;6.55;67.79;99093.44;10387263;28;20060;-66
2021/10/30 04:34:18;;;;;;;34.63;23.50;;;;;;;6.72;67.45;99100.28;10387828;28;20072;-66
2021/10/30 04:39:20;;;;;;;30.25;22.52;;;;;;;6.38;68.18;99077.97;10386957;28;20409;-65
2021/10/30 04:44:21;;;;;;;38.35;24.75;;;;;;;6.27;68.42;99082.91;10388670;28;20048;-66
2021/10/30 04:49:23;;;;;;;32.58;23.73;;;;;;;6.28;68.57;99069.88;10388117;28;20060;-66
2021/10/30 04:54:26;;;;;;;31.75;22.40;;;;;;;6.33;68.51;99061.81;10386964;28;20048;-65
2021/10/30 04:59:27;;;;;;;31.55;23.33;;;;;;;6.60;68.23;99060.25;10387550;28;20521;-66
2021/10/30 05:04:29;;;;;;;36.25;25.17;;;;;;;6.69;67.72;99040.69;10385799;28;20073;-66
2021/10/30 05:09:31;;;;;;;39.13;24.45;;;;;;;6.74;67.86;99047.31;10386973;28;20071;-66
2021/10/30 05:14:33;;;;;;;37.00;23.67;;;;;;;6.81;67.48;99037.38;10385858;28;20156;-66
2021/10/30 05:19:34;;;;;;;33.38;23.65;;;;;;;6.83;67.55;99048.53;10387007;28;20041;-66
2021/10/30 05:24:36;;;;;;;31.55;22.33;;;;;;;6.84;67.20;99042.41;10385891;28;20050;-66
2021/10/30 05:29:38;;;;;;;32.30;22.58;;;;;;;6.68;67.58;99037.25;10385135;28;20057;-66
2021/10/30 05:34:39;;;;;;;31.42;22.42;;;;;;;6.69;67.96;99033.75;10385776;28;20140;-67
2021/10/30 05:39:41;;;;;;;39.85;24.98;;;;;;;6.72;67.55;99015.38;10385700;28;20041;-66
2021/10/30 05:44:43;;;;;;;37.47;25.40;;;;;;;6.76;67.60;99016.03;10385572;28;20071;-66
2021/10/30 05:49:45;;;;;;;43.05;26.67;;;;;;;6.89;67.55;99004.84;10385154;28;20046;-66
2021/10/30 05:54:47;;;;;;;36.88;24.05;;;;;;;6.92;67.45;98990.78;10384944;28;20075;-66
2021/10/30 05:59:48;;;;;;;31.85;22.77;;;;;;;6.90;67.18;98992.66;10385221;28;20061;-66
2021/10/30 06:04:53;;;;;;;30.38;21.67;;;;;;;6.95;67.40;98988.88;10385414;28;20053;-66
2021/10/30 06:09:54;;;;;;;37.95;25.95;;;;;;;7.03;67.11;99001.41;10384654;28;20067;-67
2021/10/30 06:14:56;;;;;;;33.13;24.27;;;;;;;7.08;67.06;98994.19;10384301;28;20053;-66
2021/10/30 06:19:58;;;;;;;33.53;24.17;;;;;;;7.13;66.64;98977.34;10385479;28;20038;-66
2021/10/30 06:24:59;;;;;;;38.53;25.90;;;;;;;6.96;67.14;98984.47;10383728;28;20052;-67
2021/10/30 06:30:01;;;;;;;41.38;26.27;;;;;;;6.75;67.89;98983.19;10384717;28;20057;-66
2021/10/30 06:35:06;;;;;;;41.38;25.55;;;;;;;6.89;67.44;98981.44;10384317;28;20135;-66
2021/10/30 06:40:11;;;;;;;36.45;24.67;;;;;;;7.06;67.16;98980.44;10383682;28;20391;-66
2021/10/30 06:45:12;;;;;;;41.55;27.60;;;;;;;7.13;66.97;98979.13;10384995;28;20062;-67
2021/10/30 06:50:21;;;;;;;35.20;25.00;;;;;;;7.12;67.15;98972.25;10383086;28;20056;-68
2021/10/30 06:55:22;;;;;;;37.70;26.58;;;;;;;7.17;66.99;98975.41;10383125;28;20057;-67
2021/10/30 07:00:24;;;;;;;39.10;26.50;;;;;;;7.26;66.57;98969.66;10382839;28;20059;-67
2021/10/30 07:05:26;;;;;;;34.33;24.25;;;;;;;7.30;66.67;98970.28;10384037;28;20053;-66
2021/10/30 07:10:28;;;;;;;36.58;26.38;;;;;;;7.37;66.55;98987.16;10384862;28;20160;-66
2021/10/30 07:15:29;;;;;;;33.13;23.92;;;;;;;7.46;66.50;99000.47;10383898;28;20119;-66
2021/10/30 07:20:31;;;;;;;29.98;22.20;;;;;;;7.43;66.50;99003.25;10384137;28;20053;-66
2021/10/30 07:25:34;;;;;;;33.10;22.85;;;;;;;7.44;66.65;99010.13;10383321;28;20426;-69
2021/10/30 07:30:36;;;;;;;40.08;26.17;;;;;;;7.53;66.42;99017.34;10390878;28;20076;-69
2021/10/30 07:35:38;;;;;;;35.30;25.00;;;;;;;7.35;66.64;99002.88;10388931;28;20401;-66
2021/10/30 07:40:39;;;;;;;35.35;25.52;;;;;;;7.32;66.81;99004.84;10390417;28;20053;-66
2021/10/30 07:45:42;;;;;;;34.13;24.25;;;;;;;7.46;66.69;99010.88;10390983;28;20049;-67
2021/10/30 07:50:44;;;;;;;34.42;25.15;;;;;;;7.64;66.21;99020.13;10389150;28;20060;-66
2021/10/30 07:55:48;;;;;;;33.88;25.33;;;;;;;7.71;65.81;99011.00;10390178;28;20053;-66
2021/10/30 08:00:49;;;;;;;35.65;25.13;;;;;;;7.75;65.83;99015.09;10390245;28;20346;-65
2021/10/30 08:05:51;;;;;;;32.42;24.00;;;;;;;7.74;65.87;99010.81;10390042;28;20057;-65
2021/10/30 08:10:53;;;;;;;32.05;23.45;;;;;;;7.75;65.75;99009.06;10387891;28;20050;-66
2021/10/30 08:15:56;;;;;;;32.08;24.05;;;;;;;7.90;65.58;99016.72;10387824;28;20064;-68
2021/10/30 08:20:57;;;;;;;36.38;24.35;;;;;;;8.00;65.01;99002.19;10388965;28;20045;-68
2021/10/30 08:26:00;;;;;;;38.58;25.60;;;;;;;8.06;64.88;99000.16;10387505;28;20100;-68
2021/10/30 08:31:02;;;;;;;31.33;22.45;;;;;;;8.13;64.82;99006.66;10388807;28;20146;-68
2021/10/30 08:36:04;;;;;;;33.10;25.00;;;;;;;8.22;64.81;98995.66;10389195;28;20059;-68
2021/10/30 08:41:06;;;;;;;31.42;22.48;;;;;;;8.28;64.59;98997.84;10387688;28;20045;-76
2021/10/30 08:46:08;;;;;;;27.50;21.25;;;;;;;8.35;64.49;99012.97;10377566;28;20053;-77
2021/10/30 08:51:12;;;;;;;25.05;19.20;;;;;;;8.33;63.56;99003.59;10387312;28;20064;-76
2021/10/30 08:56:14;;;;;;;28.25;20.60;;;;;;;8.37;63.99;99026.75;10384922;28;20455;-76
2021/10/30 09:01:17;;;;;;;30.33;22.40;;;;;;;8.35;64.25;99017.34;10379705;28;20578;-76
2021/10/30 09:06:33;;;;;;;31.27;23.25;;;;;;;8.25;64.72;99000.66;10379506;28;20518;-77
2021/10/30 09:11:35;;;;;;;28.38;20.27;;;;;;;8.19;64.69;98996.69;10385773;28;20169;-78
2021/10/30 09:16:37;;;;;;;29.30;20.50;;;;;;;8.15;64.99;98969.16;10385185;28;20080;-77
2021/10/30 09:21:39;;;;;;;27.15;20.80;;;;;;;8.30;64.50;98972.53;10384621;28;20468;-77
2021/10/30 09:26:51;;;;;;;28.80;22.75;;;;;;;8.32;63.99;98976.72;10384865;28;20049;-77
2021/10/30 09:32:14;;;;;;;27.88;20.38;;;;;;;8.07;63.85;98965.34;10389039;28;20060;-77
2021/10/30 09:37:24;;;;;;;30.63;20.42;;;;;;;8.07;64.68;98945.34;10384489;28;20057;-78
2021/10/30 09:42:28;;;;;;;31.92;20.73;;;;;;;8.23;64.94;98959.09;10386012;28;20041;-78
2021/10/30 09:47:30;;;;;;;25.13;19.30;;;;;;;8.29;64.15;98950.84;10384646;28;20091;-78
2021/10/30 09:52:32;;;;;;;24.83;19.45;;;;;;;8.53;64.68;98953.59;10385341;28;20064;-77
2021/10/30 09:57:39;;;;;;;28.05;18.05;;;;;;;8.58;63.41;98946.31;10386014;28;20049;-76
2021/10/30 10:02:42;;;;;;;26.52;19.10;;;;;;;8.61;63.23;98940.88;10383846;28;20057;-77
2021/10/30 10:07:44;;;;;;;38.38;26.10;;;;;;;8.67;63.59;98924.84;10386431;28;20085;-78
2021/10/30 10:12:46;;;;;;;25.67;19.05;;;;;;;8.97;63.10;98935.81;10385577;28;20085;-77
2021/10/30 10:17:49;;;;;;;27.23;18.75;;;;;;;8.91;62.99;98935.38;10385989;28;20053;-76
2021/10/30 10:22:51;;;;;;;26.10;20.15;;;;;;;8.79;63.24;98945.69;10385576;28;20137;-76
2021/10/30 10:27:55;;;;;;;22.92;17.17;;;;;;;8.89;62.97;98925.06;10390375;28;20486;-77
2021/10/30 10:33:16;;;;;;;27.67;18.63;;;;;;;9.01;62.68;98929.44;10384534;28;20049;-75
2021/10/30 10:38:17;;;;;;;24.15;18.83;;;;;;;9.05;62.87;98930.88;10388941;28;20490;-78
2021/10/30 10:43:58;;;;;;;27.13;20.65;;;;;;;8.66;63.72;98881.47;10386357;28;20053;-76
2021/10/30 10:49:31;;;;;;;26.17;21.17;;;;;;;8.75;64.37;98860.00;10307757;28;20478;-76
2021/10/30 10:54:58;;;;;;;27.65;21.00;;;;;;;9.00;63.81;98864.31;10380327;28;20060;-77
2021/10/30 11:00:08;;;;;;;29.50;20.50;;;;;;;9.07;63.65;98863.81;10387500;28;20045;-77
2021/10/30 11:05:10;;;;;;;24.92;18.90;;;;;;;8.96;63.42;98874.16;10393132;28;20054;-77
2021/10/30 11:10:33;;;;;;;26.83;19.40;;;;;;;8.82;63.85;98882.09;10395711;28;20493;-76
2021/10/30 11:15:42;;;;;;;29.77;21.08;;;;;;;8.85;64.17;98881.91;10390092;28;20077;-77
2021/10/30 11:21:15;;;;;;;26.67;20.40;;;;;;;8.61;64.50;98883.56;10392002;28;20338;-77
2021/10/30 11:26:24;;;;;;;25.83;19.35;;;;;;;8.71;64.89;98884.59;10391517;28;20220;-77
2021/10/30 11:31:30;;;;;;;26.13;19.98;;;;;;;8.74;64.67;98872.19;10391283;28;20497;-76
2021/10/30 11:36:37;;;;;;;32.40;22.02;;;;;;;8.71;65.05;98874.16;10390128;28;20534;-77
2021/10/30 11:41:40;;;;;;;31.02;22.27;;;;;;;8.56;65.58;98865.66;10388765;28;20055;-75
2021/10/30 11:46:49;;;;;;;34.45;21.92;;;;;;;8.66;65.37;98865.84;10389592;28;20041;-76
2021/10/30 11:51:51;;;;;;;30.48;22.27;;;;;;;8.76;65.08;98872.09;10388536;28;20068;-76
2021/10/30 11:56:52;;;;;;;30.90;22.88;;;;;;;8.55;65.91;98868.34;10389040;28;20148;-75
2021/10/30 12:01:55;;;;;;;34.13;23.52;;;;;;;8.69;65.90;98870.81;10389939;28;20055;-75
2021/10/30 12:07:02;;;;;;;31.80;22.42;;;;;;;8.81;65.58;98868.22;10389509;28;20151;-76
2021/10/30 12:12:08;;;;;;;31.02;22.17;;;;;;;8.86;65.45;98873.13;10386550;28;20140;-76
2021/10/30 12:17:18;;;;;;;32.15;22.77;;;;;;;8.89;66.19;98870.31;10385427;28;20227;-76
2021/10/30 12:22:21;;;;;;;48.53;28.90;;;;;;;8.96;66.27;98858.50;10381590;28;20057;-75
2021/10/30 12:27:26;;;;;;;44.95;28.73;;;;;;;8.98;66.42;98854.00;10387846;28;20053;-76
2021/10/30 12:32:39;;;;;;;41.53;27.55;;;;;;;8.72;67.02;98824.56;10388999;28;20045;-78
2021/10/30 12:37:43;;;;;;;41.80;27.35;;;;;;;8.62;68.05;98809.66;10389929;28;20248;-77
2021/10/30 12:43:03;;;;;;;40.70;27.42;;;;;;;8.42;68.22;98818.00;10390725;28;20049;-77
2021/10/30 12:48:22;;;;;;;46.42;29.20;;;;;;;8.36;68.64;98819.28;10388248;28;20334;-77
2021/10/30 12:53:51;;;;;;;37.83;25.23;;;;;;;8.43;68.72;98815.28;10385239;28;20072;-76
2021/10/30 12:58:57;;;;;;;46.28;29.02;;;;;;;8.53;68.73;98813.72;10386176;28;20045;-76
2021/10/30 13:04:08;;;;;;;72.15;34.50;;;;;;;8.63;69.16;98808.69;10387679;28;20049;-75
2021/10/30 13:09:16;;;;;;;51.28;28.48;;;;;;;8.71;69.04;98814.22;10386746;28;20064;-76
2021/10/30 13:14:17;;;;;;;49.30;27.75;;;;;;;8.75;68.79;98816.50;10386309;28;20060;-76
2021/10/30 13:19:20;;;;;;;25.05;18.88;;;;;;;8.75;67.79;98805.25;10387583;28;20057;-76
2021/10/30 13:24:22;;;;;;;27.30;19.88;;;;;;;8.82;66.93;98819.53;10385431;28;20048;-74
2021/10/30 13:29:25;;;;;;;28.45;19.80;;;;;;;8.81;66.21;98810.06;10385662;28;20164;-74
2021/10/30 13:34:26;;;;;;;27.10;19.63;;;;;;;8.83;65.95;98797.75;10386061;28;20092;-75
2021/10/30 13:39:28;;;;;;;25.85;18.35;;;;;;;8.89;65.66;98799.91;10384565;28;20183;-76
2021/10/30 13:44:30;;;;;;;26.67;19.92;;;;;;;8.93;65.73;98805.72;10384445;28;20056;-77
2021/10/30 13:49:32;;;;;;;30.02;20.98;;;;;;;9.08;65.48;98812.44;10385589;28;20056;-75
2021/10/30 13:54:33;;;;;;;25.98;19.35;;;;;;;9.12;65.37;98803.47;10387145;28;20049;-76
2021/10/30 13:59:35;;;;;;;31.83;20.98;;;;;;;9.03;65.85;98802.38;10385798;28;20060;-76
2021/10/30 14:04:37;;;;;;;27.05;19.00;;;;;;;9.00;65.63;98799.97;10385803;28;20053;-75
2021/10/30 14:09:39;;;;;;;24.70;18.20;;;;;;;9.04;65.70;98798.81;10384666;28;20136;-75
2021/10/30 14:14:41;;;;;;;25.38;18.38;;;;;;;9.05;65.16;98810.09;10384319;28;20057;-75
2021/10/30 14:19:43;;;;;;;27.63;20.00;;;;;;;9.09;65.12;98808.91;10385768;28;20128;-75
2021/10/30 14:24:45;;;;;;;22.13;16.08;;;;;;;9.06;64.97;98802.13;10379967;28;20288;-76
2021/10/30 14:29:46;;;;;;;26.02;18.45;;;;;;;9.08;65.44;98804.63;10381670;28;20514;-75
2021/10/30 14:34:48;;;;;;;27.73;17.88;;;;;;;8.99;65.35;98800.94;10384929;28;20057;-75
2021/10/30 14:39:50;;;;;;;33.13;23.85;;;;;;;9.00;65.90;98802.56;10388782;28;20226;-75
2021/10/30 14:44:52;;;;;;;35.80;25.55;;;;;;;8.96;66.18;98806.34;10389614;28;21012;-75
2021/10/30 14:49:54;;;;;;;33.53;22.70;;;;;;;8.94;66.45;98807.38;10391075;28;20497;-76
2021/10/30 14:54:56;;;;;;;26.63;19.00;;;;;;;9.12;65.99;98812.13;10390128;28;20046;-75
2021/10/30 14:59:58;;;;;;;25.75;18.40;;;;;;;9.06;65.90;98814.34;10391734;28;20561;-77
2021/10/30 15:05:00;;;;;;;21.20;15.77;;;;;;;9.07;65.88;98818.63;10392950;28;20057;-76
2021/10/30 15:10:02;;;;;;;22.67;15.75;;;;;;;9.06;66.15;98817.78;10389468;28;20194;-75
2021/10/30 15:15:05;;;;;;;21.00;13.98;;;;;;;9.03;66.01;98812.81;10391042;28;20397;-77
2021/10/30 15:20:09;;;;;;;18.67;13.90;;;;;;;8.93;66.05;98810.94;10390760;28;20564;-75
2021/10/30 15:25:11;;;;;;;17.30;13.30;;;;;;;8.88;66.06;98818.25;10391924;28;20084;-77
2021/10/30 15:30:13;;;;;;;18.80;14.00;;;;;;;8.73;66.37;98813.16;10391701;28;20053;-75
2021/10/30 15:35:15;;;;;;;20.95;14.23;;;;;;;8.68;66.45;98801.41;10389527;28;20409;-76
2021/10/30 15:40:17;;;;;;;17.88;13.65;;;;;;;8.70;66.47;98802.13;10390717;28;20517;-76
2021/10/30 15:45:19;;;;;;;25.23;16.48;;;;;;;8.83;66.12;98800.34;10390373;28;20052;-76
2021/10/30 15:50:20;;;;;;;17.17;12.82;;;;;;;8.88;65.89;98803.44;10388701;28;20164;-76
2021/10/30 15:55:22;;;;;;;16.23;12.10;;;;;;;8.94;66.07;98805.63;10391448;28;20137;-78
2021/10/30 16:00:24;;;;;;;15.00;12.00;;;;;;;9.03;66.01;98797.16;10391594;28;20059;-77
2021/10/30 16:05:27;;;;;;;18.33;12.70;;;;;;;9.02;66.27;98813.72;10389913;28;20045;-75
2021/10/30 16:10:29;;;;;;;14.95;11.85;;;;;;;9.02;66.17;98815.50;10387778;28;20053;-75
2021/10/30 16:15:31;;;;;;;16.02;11.85;;;;;;;9.08;65.96;98818.50;10387254;28;20061;-75
2021/10/30 16:20:34;;;;;;;14.23;10.95;;;;;;;9.14;65.78;98819.84;10389310;28;20061;-75
2021/10/30 16:25:36;;;;;;;14.13;10.98;;;;;;;9.25;65.74;98818.16;10389400;28;20045;-75
2021/10/30 16:30:38;;;;;;;20.65;18.15;;;;;;;9.37;65.66;98814.66;10389222;28;20053;-75
2021/10/30 16:35:41;;;;;;;22.65;17.60;;;;;;;9.47;66.01;98820.88;10387182;28;20128;-76
2021/10/30 16:40:44;;;;;;;17.08;12.88;;;;;;;9.48;65.53;98819.09;10386060;28;20049;-75
2021/10/30 16:45:46;;;;;;;17.42;12.73;;;;;;;9.52;65.54;98821.34;10386319;28;20053;-75
2021/10/30 16:50:48;;;;;;;15.45;11.57;;;;;;;9.49;65.30;98825.97;10387298;28;20779;-76
2021/10/30 16:55:50;;;;;;;16.42;11.88;;;;;;;9.47;65.26;98820.88;10386553;28;20041;-76
2021/10/30 17:00:52;;;;;;;14.77;11.88;;;;;;;9.50;65.21;98818.03;10386504;28;20053;-76
2021/10/30 17:05:54;;;;;;;12.50;10.25;;;;;;;9.56;65.29;98833.22;10386713;28;20138;-75
2021/10/30 17:10:57;;;;;;;13.75;11.00;;;;;;;9.55;65.39;98841.19;10387278;28;20054;-76
2021/10/30 17:16:00;;;;;;;16.48;11.98;;;;;;;9.68;65.33;98830.72;10387282;28;20049;-76
2021/10/30 17:21:02;;;;;;;14.68;11.40;;;;;;;9.67;65.20;98826.47;10387481;28;20064;-76
2021/10/30 17:26:05;;;;;;;14.25;11.40;;;;;;;9.54;66.01;98835.13;10386468;28;20328;-68
2021/10/30 17:31:07;;;;;;;14.77;11.52;;;;;;;9.40;66.54;98843.13;10385735;28;20055;-67
2021/10/30 17:36:10;;;;;;;13.27;11.60;;;;;;;9.53;66.19;98851.75;10385031;28;20049;-68
2021/10/30 17:41:12;;;;;;;15.65;11.77;;;;;;;9.61;66.00;98859.84;10385673;28;20136;-68
2021/10/30 17:46:14;;;;;;;13.75;11.50;;;;;;;9.58;66.29;98861.84;10384880;28;20044;-68
2021/10/30 17:51:16;;;;;;;15.75;11.93;;;;;;;9.47;66.72;98870.47;10385508;28;20506;-68
2021/10/30 17:56:18;;;;;;;14.98;11.95;;;;;;;9.38;67.20;98863.28;10383978;28;20117;-68
2021/10/30 18:01:20;;;;;;;18.08;12.75;;;;;;;9.44;66.83;98865.44;10384657;28;20684;-68
2021/10/30 18:06:22;;;;;;;15.88;13.48;;;;;;;9.38;67.06;98858.06;10383430;28;20053;-68
2021/10/30 18:11:24;;;;;;;16.42;12.23;;;;;;;9.42;67.07;98864.72;10383853;28;20045;-68
2021/10/30 18:16:26;;;;;;;15.85;13.00;;;;;;;9.42;67.11;98867.31;10384341;28;20469;-67
2021/10/30 18:21:27;;;;;;;16.15;13.15;;;;;;;9.37;67.01;98866.00;10384724;28;20084;-68
2021/10/30 18:26:29;;;;;;;17.55;13.77;;;;;;;9.10;67.34;98863.56;10384216;28;20054;-68
2021/10/30 18:31:31;;;;;;;17.55;14.73;;;;;;;9.04;67.38;98874.44;10384678;28;20064;-68
2021/10/30 18:36:33;;;;;;;21.13;15.05;;;;;;;9.09;67.61;98880.19;10383577;28;20701;-68
2021/10/30 18:41:35;;;;;;;19.50;15.18;;;;;;;8.96;68.22;98887.19;10382880;28;20049;-67
2021/10/30 18:46:37;;;;;;;21.08;14.50;;;;;;;8.95;68.23;98893.34;10381410;28;20092;-68
2021/10/30 18:51:39;;;;;;;20.05;16.15;;;;;;;9.01;67.78;98892.94;10383761;28;20413;-68
2021/10/30 18:56:42;;;;;;;19.10;15.55;;;;;;;9.14;67.60;98898.09;10383595;28;20140;-68
2021/10/30 19:01:44;;;;;;;21.05;15.88;;;;;;;9.16;67.60;98898.81;10383615;28;20059;-68
2021/10/30 19:06:47;;;;;;;19.20;15.32;;;;;;;9.28;67.21;98896.19;10380995;28;20130;-68
2021/10/30 19:11:54;;;;;;;20.20;15.43;;;;;;;9.21;67.25;98905.41;10381317;28;20057;-68
2021/10/30 19:16:55;;;;;;;20.10;16.60;;;;;;;9.20;67.28;98906.31;10382966;28;20062;-67
2021/10/30 19:21:57;;;;;;;19.80;16.40;;;;;;;9.20;67.35;98908.94;10381995;28;20076;-68
2021/10/30 19:27:04;;;;;;;19.75;16.55;;;;;;;9.14;67.81;98926.78;10389608;28;20146;-68
2021/10/30 19:32:06;;;;;;;19.80;16.60;;;;;;;9.35;67.51;98927.91;10382481;28;21003;-68
2021/10/30 19:37:08;;;;;;;22.75;17.23;;;;;;;9.49;67.36;98935.59;10383612;28;20045;-69
2021/10/30 19:42:10;;;;;;;28.27;21.48;;;;;;;9.52;67.23;98936.19;10386112;28;20152;-68
2021/10/30 19:47:12;;;;;;;21.85;17.63;;;;;;;9.59;67.40;98942.66;10386646;28;20060;-68
2021/10/30 19:52:14;;;;;;;19.80;15.80;;;;;;;9.70;66.85;98938.47;10387847;28;20046;-68
2021/10/30 19:57:18;;;;;;;22.33;17.83;;;;;;;9.72;66.88;98947.03;10386781;28;20054;-67
2021/10/30 20:02:20;;;;;;;20.13;16.33;;;;;;;9.70;66.97;98951.53;10386999;28;20498;-67
2021/10/30 20:07:22;;;;;;;24.52;17.52;;;;;;;9.73;67.16;98946.91;10388677;28;20057;-68
2021/10/30 20:12:24;;;;;;;23.48;16.88;;;;;;;9.74;67.19;98945.97;10386494;28;20049;-67
2021/10/30 20:17:25;;;;;;;20.92;16.20;;;;;;;9.75;67.04;98944.22;10388837;28;20057;-68
2021/10/30 20:22:27;;;;;;;26.63;18.80;;;;;;;9.77;67.11;98937.91;10385783;28;20056;-67
2021/10/30 20:27:29;;;;;;;26.23;20.65;;;;;;;9.63;67.32;98954.56;10385540;28;20099;-69
2021/10/30 20:32:31;;;;;;;19.88;16.45;;;;;;;9.49;67.45;98954.69;10386717;28;20381;-68
2021/10/30 20:37:33;;;;;;;25.13;18.83;;;;;;;9.45;67.75;98971.50;10386813;28;20409;-67
2021/10/30 20:42:35;;;;;;;25.27;19.90;;;;;;;9.54;67.51;98983.91;10387329;28;20045;-67
2021/10/30 20:47:37;;;;;;;23.50;18.33;;;;;;;9.49;67.82;98980.78;10370106;28;20049;-67
2021/10/30 20:52:38;;;;;;;22.10;17.05;;;;;;;9.58;67.75;98987.97;10387620;28;20148;-67
2021/10/30 20:57:40;;;;;;;21.73;17.48;;;;;;;9.72;67.56;98986.19;10385977;28;20310;-67
2021/10/30 21:02:42;;;;;;;22.20;17.67;;;;;;;9.70;67.41;99001.97;10386833;28;20142;-68
2021/10/30 21:07:44;;;;;;;23.27;17.90;;;;;;;9.74;67.44;99005.19;10386189;28;20177;-67
2021/10/30 21:12:46;;;;;;;22.48;17.05;;;;;;;9.75;67.63;99009.50;10386367;28;20049;-67
2021/10/30 21:17:50;;;;;;;21.83;16.83;;;;;;;9.77;67.47;99015.44;10384916;28;20049;-68
2021/10/30 21:22:52;;;;;;;21.20;16.25;;;;;;;9.85;67.48;99013.94;10385439;28;20139;-67
2021/10/30 21:27:54;;;;;;;19.20;15.43;;;;;;;9.90;67.25;99009.22;10386737;28;20222;-67
2021/10/30 21:32:56;;;;;;;21.45;16.85;;;;;;;9.83;67.26;99017.63;10384817;28;20055;-67
2021/10/30 21:37:58;;;;;;;21.23;16.58;;;;;;;9.84;67.57;99024.50;10385294;28;20045;-67
2021/10/30 21:42:59;;;;;;;20.42;15.93;;;;;;;9.83;67.63;99031.47;10384912;28;20045;-67
2021/10/30 21:48:01;;;;;;;21.25;16.48;;;;;;;9.91;67.46;99031.78;10383817;28;20406;-68
2021/10/30 21:53:03;;;;;;;22.00;16.35;;;;;;;9.98;67.39;99035.63;10384778;28;20045;-68
2021/10/30 21:58:05;;;;;;;19.80;16.27;;;;;;;10.10;67.21;99039.13;10384671;28;20456;-67
2021/10/30 22:03:06;;;;;;;23.38;15.93;;;;;;;10.19;66.91;99041.94;10383990;28;20049;-68
2021/10/30 22:08:08;;;;;;;19.80;16.38;;;;;;;10.23;66.98;99050.38;10384559;28;20057;-67
2021/10/30 22:13:12;;;;;;;21.05;16.33;;;;;;;10.17;67.05;99056.88;10382312;28;20049;-67
2021/10/30 22:18:15;;;;;;;20.90;15.70;;;;;;;10.25;66.93;99059.78;10381184;28;20126;-67
2021/10/30 22:23:17;;;;;;;19.33;15.65;;;;;;;10.29;66.72;99070.84;10382173;28;20053;-67
2021/10/30 22:28:19;;;;;;;18.60;14.70;;;;;;;10.33;66.58;99080.13;10383194;28;20741;-68
2021/10/30 22:33:22;;;;;;;23.65;18.50;;;;;;;10.31;66.81;99071.56;10381277;28;20051;-67
2021/10/30 22:38:24;;;;;;;22.85;18.10;;;;;;;10.31;66.81;99082.03;10382841;28;20049;-67
2021/10/30 22:43:26;;;;;;;25.83;19.48;;;;;;;10.25;66.95;99066.78;10383105;28;20050;-67
2021/10/30 22:48:27;;;;;;;25.83;19.20;;;;;;;10.31;67.02;99074.19;10383036;28;20435;-68
2021/10/30 22:53:29;;;;;;;22.55;18.95;;;;;;;10.23;67.25;99086.97;10384633;28;20136;-67
2021/10/30 22:58:31;;;;;;;24.30;19.20;;;;;;;10.04;67.83;99082.22;10386270;28;20076;-67
2021/10/30 23:03:33;;;;;;;32.03;24.13;;;;;;;9.76;68.55;99077.25;10386087;28;20057;-67
2021/10/30 23:08:35;;;;;;;29.48;21.30;;;;;;;9.89;68.59;99085.88;10389773;28;20175;-66
2021/10/30 23:13:39;;;;;;;26.45;19.48;;;;;;;9.90;68.54;99090.19;10386225;28;20053;-67